sensor_id;sensor_type;location;lat;lon;timestamp;P1;durP1;ratioP1;P2;durP2;ratioP2
78561;SDS011;68963;52.138;5.446;2023-05-10T00:01:20;23.10;;;9.82;;
78561;SDS011;68963;52.138;5.446;2023-05-10T00:03:46;22.33;;;9.57;;
78561;SDS011;68963;52.138;5.446;2023-05-10T00:06:13;21.23;;;9.13;;
78561;SDS011;68963;52.138;5.446;2023-05-10T00:08:40;22.75;;;9.77;;
78561;SDS011;68963;52.138;5.446;2023-05-10T00:11:06;22.00;;;9.93;;
78561;SDS011;68963;52.138;5.446;2023-05-10T00:13:33;21.60;;;9.25;;
78561;SDS011;68963;52.138;5.446;2023-05-10T00:15:59;21.60;;;9.65;;
78561;SDS011;68963;52.138;5.446;2023-05-10T00:18:26;23.77;;;9.80;;
78561;SDS011;68963;52.138;5.446;2023-05-10T00:20:53;22.98;;;10.23;;
78561;SDS011;68963;52.138;5.446;2023-05-10T00:23:19;25.10;;;10.75;;
78561;SDS011;68963;52.138;5.446;2023-05-10T00:25:46;23.35;;;10.95;;
78561;SDS011;68963;52.138;5.446;2023-05-10T00:28:12;30.75;;;12.48;;
78561;SDS011;68963;52.138;5.446;2023-05-10T00:30:39;26.98;;;11.45;;
78561;SDS011;68963;52.138;5.446;2023-05-10T00:33:05;33.80;;;13.25;;
78561;SDS011;68963;52.138;5.446;2023-05-10T00:35:32;33.30;;;12.82;;
78561;SDS011;68963;52.138;5.446;2023-05-10T00:37:58;38.00;;;13.88;;
78561;SDS011;68963;52.138;5.446;2023-05-10T00:40:25;39.50;;;14.73;;
78561;SDS011;68963;52.138;5.446;2023-05-10T00:42:52;37.65;;;14.18;;
78561;SDS011;68963;52.138;5.446;2023-05-10T00:45:18;40.58;;;15.02;;
78561;SDS011;68963;52.138;5.446;2023-05-10T00:47:45;41.90;;;15.52;;
78561;SDS011;68963;52.138;5.446;2023-05-10T00:50:12;43.90;;;16.48;;
78561;SDS011;68963;52.138;5.446;2023-05-10T00:52:39;44.45;;;15.95;;
78561;SDS011;68963;52.138;5.446;2023-05-10T00:55:06;42.08;;;15.80;;
78561;SDS011;68963;52.138;5.446;2023-05-10T00:57:33;50.75;;;17.77;;
78561;SDS011;68963;52.138;5.446;2023-05-10T01:00:00;46.33;;;17.45;;
78561;SDS011;68963;52.138;5.446;2023-05-10T01:02:27;48.53;;;16.83;;
78561;SDS011;68963;52.138;5.446;2023-05-10T01:04:54;46.50;;;16.75;;
78561;SDS011;68963;52.138;5.446;2023-05-10T01:07:21;49.08;;;18.55;;
78561;SDS011;68963;52.138;5.446;2023-05-10T01:09:47;48.78;;;18.08;;
78561;SDS011;68963;52.138;5.446;2023-05-10T01:12:14;49.95;;;18.50;;
78561;SDS011;68963;52.138;5.446;2023-05-10T01:14:41;51.55;;;18.27;;
78561;SDS011;68963;52.138;5.446;2023-05-10T01:17:08;52.60;;;17.88;;
78561;SDS011;68963;52.138;5.446;2023-05-10T01:19:37;49.25;;;17.17;;
78561;SDS011;68963;52.138;5.446;2023-05-10T01:22:19;44.55;;;16.35;;
78561;SDS011;68963;52.138;5.446;2023-05-10T01:33:15;44.13;;;16.38;;
78561;SDS011;68963;52.138;5.446;2023-05-10T01:35:51;47.83;;;17.83;;
78561;SDS011;68963;52.138;5.446;2023-05-10T01:41:24;43.40;;;16.38;;
78561;SDS011;68963;52.138;5.446;2023-05-10T01:44:16;44.20;;;15.43;;
78561;SDS011;68963;52.138;5.446;2023-05-10T01:46:48;48.00;;;16.95;;
78561;SDS011;68963;52.138;5.446;2023-05-10T01:49:21;48.10;;;17.33;;
78561;SDS011;68963;52.138;5.446;2023-05-10T01:51:53;51.55;;;17.90;;
78561;SDS011;68963;52.138;5.446;2023-05-10T01:54:24;52.63;;;17.80;;
78561;SDS011;68963;52.138;5.446;2023-05-10T01:57:02;47.50;;;16.58;;
78561;SDS011;68963;52.138;5.446;2023-05-10T01:59:33;48.35;;;16.73;;
78561;SDS011;68963;52.138;5.446;2023-05-10T02:02:07;52.67;;;16.58;;
78561;SDS011;68963;52.138;5.446;2023-05-10T02:04:38;52.25;;;17.23;;
78561;SDS011;68963;52.138;5.446;2023-05-10T02:07:07;51.92;;;17.17;;
78561;SDS011;68963;52.138;5.446;2023-05-10T02:09:35;52.53;;;17.73;;
78561;SDS011;68963;52.138;5.446;2023-05-10T02:12:03;54.38;;;17.15;;
78561;SDS011;68963;52.138;5.446;2023-05-10T02:14:32;50.38;;;17.58;;
78561;SDS011;68963;52.138;5.446;2023-05-10T02:17:02;52.05;;;17.63;;
78561;SDS011;68963;52.138;5.446;2023-05-10T02:19:31;51.65;;;18.60;;
78561;SDS011;68963;52.138;5.446;2023-05-10T02:22:00;51.65;;;17.92;;
78561;SDS011;68963;52.138;5.446;2023-05-10T02:24:28;59.42;;;18.27;;
78561;SDS011;68963;52.138;5.446;2023-05-10T02:26:55;53.35;;;17.48;;
78561;SDS011;68963;52.138;5.446;2023-05-10T02:29:23;53.25;;;18.10;;
78561;SDS011;68963;52.138;5.446;2023-05-10T02:31:53;52.67;;;17.98;;
78561;SDS011;68963;52.138;5.446;2023-05-10T02:34:21;53.30;;;18.35;;
78561;SDS011;68963;52.138;5.446;2023-05-10T02:36:49;52.42;;;17.63;;
78561;SDS011;68963;52.138;5.446;2023-05-10T02:39:17;53.30;;;17.60;;
78561;SDS011;68963;52.138;5.446;2023-05-10T02:41:46;51.72;;;17.85;;
78561;SDS011;68963;52.138;5.446;2023-05-10T02:44:17;52.85;;;18.77;;
78561;SDS011;68963;52.138;5.446;2023-05-10T02:46:45;54.25;;;18.25;;
78561;SDS011;68963;52.138;5.446;2023-05-10T02:49:13;51.30;;;17.95;;
78561;SDS011;68963;52.138;5.446;2023-05-10T02:51:42;49.63;;;17.17;;
78561;SDS011;68963;52.138;5.446;2023-05-10T02:54:23;52.45;;;18.52;;
78561;SDS011;68963;52.138;5.446;2023-05-10T02:56:55;51.80;;;18.17;;
78561;SDS011;68963;52.138;5.446;2023-05-10T02:59:23;53.17;;;18.02;;
78561;SDS011;68963;52.138;5.446;2023-05-10T03:01:50;54.75;;;18.20;;
78561;SDS011;68963;52.138;5.446;2023-05-10T03:04:16;54.03;;;18.08;;
78561;SDS011;68963;52.138;5.446;2023-05-10T03:06:43;53.90;;;18.70;;
78561;SDS011;68963;52.138;5.446;2023-05-10T03:09:10;57.72;;;18.30;;
78561;SDS011;68963;52.138;5.446;2023-05-10T03:14:23;60.50;;;18.70;;
78561;SDS011;68963;52.138;5.446;2023-05-10T03:19:58;64.50;;;19.05;;
78561;SDS011;68963;52.138;5.446;2023-05-10T03:22:31;60.50;;;19.35;;
78561;SDS011;68963;52.138;5.446;2023-05-10T03:25:04;70.00;;;19.88;;
78561;SDS011;68963;52.138;5.446;2023-05-10T03:27:35;65.03;;;19.73;;
78561;SDS011;68963;52.138;5.446;2023-05-10T03:30:02;65.03;;;19.35;;
78561;SDS011;68963;52.138;5.446;2023-05-10T03:32:30;68.68;;;20.25;;
78561;SDS011;68963;52.138;5.446;2023-05-10T03:37:25;64.50;;;18.88;;
78561;SDS011;68963;52.138;5.446;2023-05-10T03:39:51;64.05;;;18.60;;
78561;SDS011;68963;52.138;5.446;2023-05-10T03:42:18;71.05;;;19.88;;
78561;SDS011;68963;52.138;5.446;2023-05-10T03:44:44;69.18;;;19.85;;
78561;SDS011;68963;52.138;5.446;2023-05-10T03:47:11;71.35;;;19.40;;
78561;SDS011;68963;52.138;5.446;2023-05-10T03:49:37;66.80;;;19.08;;
78561;SDS011;68963;52.138;5.446;2023-05-10T03:52:04;67.43;;;18.67;;
78561;SDS011;68963;52.138;5.446;2023-05-10T03:54:31;63.58;;;18.83;;
78561;SDS011;68963;52.138;5.446;2023-05-10T03:56:58;63.80;;;18.52;;
78561;SDS011;68963;52.138;5.446;2023-05-10T03:59:25;69.97;;;19.70;;
78561;SDS011;68963;52.138;5.446;2023-05-10T04:01:51;70.07;;;18.90;;
78561;SDS011;68963;52.138;5.446;2023-05-10T04:04:18;67.20;;;19.63;;
78561;SDS011;68963;52.138;5.446;2023-05-10T04:06:47;65.38;;;18.38;;
78561;SDS011;68963;52.138;5.446;2023-05-10T04:09:13;66.63;;;19.70;;
78561;SDS011;68963;52.138;5.446;2023-05-10T04:11:40;66.28;;;19.25;;
78561;SDS011;68963;52.138;5.446;2023-05-10T04:14:06;70.03;;;19.63;;
78561;SDS011;68963;52.138;5.446;2023-05-10T04:16:33;68.55;;;19.23;;
78561;SDS011;68963;52.138;5.446;2023-05-10T04:19:00;70.90;;;19.40;;
78561;SDS011;68963;52.138;5.446;2023-05-10T04:21:26;68.50;;;19.35;;
78561;SDS011;68963;52.138;5.446;2023-05-10T04:23:53;67.07;;;19.38;;
78561;SDS011;68963;52.138;5.446;2023-05-10T04:26:19;66.30;;;18.48;;
78561;SDS011;68963;52.138;5.446;2023-05-10T04:28:46;61.33;;;18.58;;
78561;SDS011;68963;52.138;5.446;2023-05-10T04:31:13;66.97;;;19.75;;
78561;SDS011;68963;52.138;5.446;2023-05-10T04:33:39;60.95;;;18.52;;
78561;SDS011;68963;52.138;5.446;2023-05-10T04:36:06;62.60;;;19.15;;
78561;SDS011;68963;52.138;5.446;2023-05-10T04:38:33;68.55;;;18.65;;
78561;SDS011;68963;52.138;5.446;2023-05-10T04:41:09;60.10;;;18.17;;
78561;SDS011;68963;52.138;5.446;2023-05-10T04:43:36;68.43;;;19.55;;
78561;SDS011;68963;52.138;5.446;2023-05-10T04:46:04;70.30;;;18.85;;
78561;SDS011;68963;52.138;5.446;2023-05-10T04:48:33;66.10;;;19.45;;
78561;SDS011;68963;52.138;5.446;2023-05-10T04:51:00;65.38;;;18.60;;
78561;SDS011;68963;52.138;5.446;2023-05-10T04:53:27;60.75;;;18.30;;
78561;SDS011;68963;52.138;5.446;2023-05-10T04:55:53;63.10;;;18.17;;
78561;SDS011;68963;52.138;5.446;2023-05-10T04:58:20;65.22;;;19.27;;
78561;SDS011;68963;52.138;5.446;2023-05-10T05:00:46;63.42;;;19.20;;
78561;SDS011;68963;52.138;5.446;2023-05-10T05:03:13;58.47;;;17.30;;
78561;SDS011;68963;52.138;5.446;2023-05-10T05:05:39;65.88;;;19.23;;
78561;SDS011;68963;52.138;5.446;2023-05-10T05:08:06;64.68;;;18.83;;
78561;SDS011;68963;52.138;5.446;2023-05-10T05:10:32;58.70;;;18.08;;
78561;SDS011;68963;52.138;5.446;2023-05-10T05:12:59;64.68;;;19.02;;
78561;SDS011;68963;52.138;5.446;2023-05-10T05:15:25;62.65;;;18.20;;
78561;SDS011;68963;52.138;5.446;2023-05-10T05:17:52;68.15;;;19.95;;
78561;SDS011;68963;52.138;5.446;2023-05-10T05:20:19;71.63;;;19.88;;
78561;SDS011;68963;52.138;5.446;2023-05-10T05:22:46;70.38;;;18.83;;
78561;SDS011;68963;52.138;5.446;2023-05-10T05:25:12;72.28;;;20.13;;
78561;SDS011;68963;52.138;5.446;2023-05-10T05:27:39;64.10;;;19.85;;
78561;SDS011;68963;52.138;5.446;2023-05-10T05:30:06;68.15;;;20.30;;
78561;SDS011;68963;52.138;5.446;2023-05-10T05:32:33;69.40;;;19.85;;
78561;SDS011;68963;52.138;5.446;2023-05-10T05:34:59;68.80;;;20.25;;
78561;SDS011;68963;52.138;5.446;2023-05-10T05:37:27;70.30;;;20.42;;
78561;SDS011;68963;52.138;5.446;2023-05-10T05:39:54;72.10;;;20.63;;
78561;SDS011;68963;52.138;5.446;2023-05-10T05:42:21;63.90;;;19.17;;
78561;SDS011;68963;52.138;5.446;2023-05-10T05:44:47;69.22;;;20.58;;
78561;SDS011;68963;52.138;5.446;2023-05-10T05:47:14;67.72;;;20.90;;
78561;SDS011;68963;52.138;5.446;2023-05-10T05:49:40;66.10;;;21.10;;
78561;SDS011;68963;52.138;5.446;2023-05-10T05:52:07;63.50;;;20.63;;
78561;SDS011;68963;52.138;5.446;2023-05-10T05:54:33;65.63;;;20.88;;
78561;SDS011;68963;52.138;5.446;2023-05-10T05:57:00;62.10;;;19.67;;
78561;SDS011;68963;52.138;5.446;2023-05-10T05:59:27;66.00;;;19.23;;
78561;SDS011;68963;52.138;5.446;2023-05-10T06:01:54;60.67;;;18.63;;
78561;SDS011;68963;52.138;5.446;2023-05-10T06:04:21;58.08;;;18.95;;
78561;SDS011;68963;52.138;5.446;2023-05-10T06:06:47;58.63;;;18.65;;
78561;SDS011;68963;52.138;5.446;2023-05-10T06:09:14;58.08;;;19.02;;
78561;SDS011;68963;52.138;5.446;2023-05-10T06:11:41;56.28;;;18.60;;
78561;SDS011;68963;52.138;5.446;2023-05-10T06:14:07;52.63;;;17.35;;
78561;SDS011;68963;52.138;5.446;2023-05-10T06:16:34;47.17;;;17.25;;
78561;SDS011;68963;52.138;5.446;2023-05-10T06:19:01;45.72;;;16.08;;
78561;SDS011;68963;52.138;5.446;2023-05-10T06:21:28;49.35;;;17.15;;
78561;SDS011;68963;52.138;5.446;2023-05-10T06:23:56;47.00;;;17.15;;
78561;SDS011;68963;52.138;5.446;2023-05-10T06:26:22;51.78;;;18.20;;
78561;SDS011;68963;52.138;5.446;2023-05-10T06:28:49;50.28;;;17.83;;
78561;SDS011;68963;52.138;5.446;2023-05-10T06:31:15;54.30;;;18.42;;
78561;SDS011;68963;52.138;5.446;2023-05-10T06:33:42;50.28;;;17.85;;
78561;SDS011;68963;52.138;5.446;2023-05-10T06:36:09;53.30;;;17.38;;
78561;SDS011;68963;52.138;5.446;2023-05-10T06:38:35;46.90;;;16.17;;
78561;SDS011;68963;52.138;5.446;2023-05-10T06:41:02;44.90;;;17.15;;
78561;SDS011;68963;52.138;5.446;2023-05-10T06:43:29;44.92;;;15.20;;
78561;SDS011;68963;52.138;5.446;2023-05-10T06:45:55;46.13;;;14.95;;
78561;SDS011;68963;52.138;5.446;2023-05-10T06:48:22;43.20;;;14.70;;
78561;SDS011;68963;52.138;5.446;2023-05-10T06:50:49;39.03;;;14.10;;
78561;SDS011;68963;52.138;5.446;2023-05-10T06:53:15;36.25;;;13.32;;
78561;SDS011;68963;52.138;5.446;2023-05-10T06:55:42;35.08;;;12.13;;
78561;SDS011;68963;52.138;5.446;2023-05-10T06:58:08;34.80;;;11.90;;
78561;SDS011;68963;52.138;5.446;2023-05-10T07:00:35;32.92;;;11.57;;
78561;SDS011;68963;52.138;5.446;2023-05-10T07:03:05;31.70;;;11.13;;
78561;SDS011;68963;52.138;5.446;2023-05-10T07:05:32;29.05;;;11.13;;
78561;SDS011;68963;52.138;5.446;2023-05-10T07:07:59;28.80;;;10.35;;
78561;SDS011;68963;52.138;5.446;2023-05-10T07:10:26;27.48;;;10.40;;
78561;SDS011;68963;52.138;5.446;2023-05-10T07:12:52;25.50;;;9.88;;
78561;SDS011;68963;52.138;5.446;2023-05-10T07:15:19;23.77;;;9.00;;
78561;SDS011;68963;52.138;5.446;2023-05-10T07:17:46;21.27;;;8.70;;
78561;SDS011;68963;52.138;5.446;2023-05-10T07:20:12;21.60;;;8.50;;
78561;SDS011;68963;52.138;5.446;2023-05-10T07:22:39;22.13;;;8.75;;
78561;SDS011;68963;52.138;5.446;2023-05-10T07:25:06;20.45;;;9.00;;
78561;SDS011;68963;52.138;5.446;2023-05-10T07:27:32;21.33;;;8.57;;
78561;SDS011;68963;52.138;5.446;2023-05-10T07:29:59;22.40;;;8.75;;
78561;SDS011;68963;52.138;5.446;2023-05-10T07:32:26;22.48;;;9.15;;
78561;SDS011;68963;52.138;5.446;2023-05-10T07:34:53;21.33;;;7.93;;
78561;SDS011;68963;52.138;5.446;2023-05-10T07:37:20;17.00;;;7.15;;
78561;SDS011;68963;52.138;5.446;2023-05-10T07:39:46;17.33;;;7.50;;
78561;SDS011;68963;52.138;5.446;2023-05-10T07:42:13;18.73;;;7.60;;
78561;SDS011;68963;52.138;5.446;2023-05-10T07:44:39;17.75;;;7.30;;
78561;SDS011;68963;52.138;5.446;2023-05-10T07:47:06;21.75;;;7.85;;
78561;SDS011;68963;52.138;5.446;2023-05-10T07:49:32;19.58;;;7.82;;
78561;SDS011;68963;52.138;5.446;2023-05-10T07:51:59;20.23;;;8.68;;
78561;SDS011;68963;52.138;5.446;2023-05-10T07:54:25;19.38;;;8.00;;
78561;SDS011;68963;52.138;5.446;2023-05-10T07:56:52;19.80;;;8.07;;
78561;SDS011;68963;52.138;5.446;2023-05-10T07:59:18;20.35;;;8.35;;
78561;SDS011;68963;52.138;5.446;2023-05-10T08:01:45;22.20;;;8.40;;
78561;SDS011;68963;52.138;5.446;2023-05-10T08:04:11;20.15;;;7.70;;
78561;SDS011;68963;52.138;5.446;2023-05-10T08:06:38;18.77;;;8.73;;
78561;SDS011;68963;52.138;5.446;2023-05-10T08:09:05;20.17;;;8.15;;
78561;SDS011;68963;52.138;5.446;2023-05-10T08:11:32;19.83;;;7.50;;
78561;SDS011;68963;52.138;5.446;2023-05-10T08:14:00;13.10;;;6.15;;
78561;SDS011;68963;52.138;5.446;2023-05-10T08:16:27;15.68;;;6.43;;
78561;SDS011;68963;52.138;5.446;2023-05-10T08:18:53;16.25;;;6.75;;
78561;SDS011;68963;52.138;5.446;2023-05-10T08:21:21;17.67;;;7.90;;
78561;SDS011;68963;52.138;5.446;2023-05-10T08:23:48;15.38;;;6.35;;
78561;SDS011;68963;52.138;5.446;2023-05-10T08:26:15;16.75;;;7.60;;
78561;SDS011;68963;52.138;5.446;2023-05-10T08:28:41;17.02;;;7.35;;
78561;SDS011;68963;52.138;5.446;2023-05-10T08:31:08;15.13;;;7.47;;
78561;SDS011;68963;52.138;5.446;2023-05-10T08:33:34;16.83;;;7.47;;
78561;SDS011;68963;52.138;5.446;2023-05-10T08:36:01;17.00;;;7.45;;
78561;SDS011;68963;52.138;5.446;2023-05-10T08:38:27;17.17;;;7.97;;
78561;SDS011;68963;52.138;5.446;2023-05-10T08:40:54;17.27;;;8.30;;
78561;SDS011;68963;52.138;5.446;2023-05-10T08:43:26;17.20;;;8.48;;
78561;SDS011;68963;52.138;5.446;2023-05-10T08:45:59;18.65;;;8.85;;
78561;SDS011;68963;52.138;5.446;2023-05-10T08:48:29;19.27;;;8.88;;
78561;SDS011;68963;52.138;5.446;2023-05-10T08:50:57;20.13;;;9.00;;
78561;SDS011;68963;52.138;5.446;2023-05-10T08:53:26;19.15;;;8.90;;
78561;SDS011;68963;52.138;5.446;2023-05-10T08:55:54;20.95;;;9.23;;
78561;SDS011;68963;52.138;5.446;2023-05-10T08:58:21;20.17;;;9.18;;
78561;SDS011;68963;52.138;5.446;2023-05-10T09:00:48;19.90;;;8.85;;
78561;SDS011;68963;52.138;5.446;2023-05-10T09:03:17;18.65;;;8.48;;
78561;SDS011;68963;52.138;5.446;2023-05-10T09:05:44;17.27;;;8.10;;
78561;SDS011;68963;52.138;5.446;2023-05-10T09:08:11;16.77;;;8.27;;
78561;SDS011;68963;52.138;5.446;2023-05-10T09:10:39;18.00;;;7.70;;
78561;SDS011;68963;52.138;5.446;2023-05-10T09:13:08;18.27;;;8.38;;
78561;SDS011;68963;52.138;5.446;2023-05-10T09:15:37;16.30;;;7.85;;
78561;SDS011;68963;52.138;5.446;2023-05-10T09:18:04;14.38;;;7.35;;
78561;SDS011;68963;52.138;5.446;2023-05-10T09:20:30;16.15;;;7.60;;
78561;SDS011;68963;52.138;5.446;2023-05-10T09:22:57;14.95;;;7.05;;
78561;SDS011;68963;52.138;5.446;2023-05-10T09:25:24;15.30;;;6.13;;
78561;SDS011;68963;52.138;5.446;2023-05-10T09:27:51;15.32;;;6.55;;
78561;SDS011;68963;52.138;5.446;2023-05-10T09:30:25;14.52;;;6.70;;
78561;SDS011;68963;52.138;5.446;2023-05-10T09:32:54;15.55;;;7.05;;
78561;SDS011;68963;52.138;5.446;2023-05-10T09:37:55;14.13;;;5.63;;
78561;SDS011;68963;52.138;5.446;2023-05-10T09:40:24;12.43;;;5.00;;
78561;SDS011;68963;52.138;5.446;2023-05-10T09:42:53;11.88;;;4.40;;
78561;SDS011;68963;52.138;5.446;2023-05-10T09:45:22;8.30;;;3.58;;
78561;SDS011;68963;52.138;5.446;2023-05-10T09:47:53;8.18;;;3.78;;
78561;SDS011;68963;52.138;5.446;2023-05-10T09:50:20;8.88;;;3.40;;
78561;SDS011;68963;52.138;5.446;2023-05-10T09:52:50;6.35;;;2.90;;
78561;SDS011;68963;52.138;5.446;2023-05-10T09:55:23;7.28;;;3.40;;
78561;SDS011;68963;52.138;5.446;2023-05-10T09:58:00;7.32;;;2.70;;
78561;SDS011;68963;52.138;5.446;2023-05-10T10:00:28;5.95;;;2.65;;
78561;SDS011;68963;52.138;5.446;2023-05-10T10:02:58;6.15;;;2.85;;
78561;SDS011;68963;52.138;5.446;2023-05-10T10:05:29;6.93;;;2.92;;
78561;SDS011;68963;52.138;5.446;2023-05-10T10:10:29;6.82;;;3.42;;
78561;SDS011;68963;52.138;5.446;2023-05-10T10:12:58;8.68;;;3.78;;
78561;SDS011;68963;52.138;5.446;2023-05-10T10:15:24;7.53;;;3.63;;
78561;SDS011;68963;52.138;5.446;2023-05-10T10:17:52;13.77;;;4.90;;
78561;SDS011;68963;52.138;5.446;2023-05-10T10:20:20;10.77;;;4.70;;
78561;SDS011;68963;52.138;5.446;2023-05-10T10:22:48;9.70;;;4.53;;
78561;SDS011;68963;52.138;5.446;2023-05-10T10:25:15;10.07;;;4.70;;
78561;SDS011;68963;52.138;5.446;2023-05-10T10:30:35;9.32;;;4.43;;
78561;SDS011;68963;52.138;5.446;2023-05-10T10:35:54;9.45;;;4.47;;
78561;SDS011;68963;52.138;5.446;2023-05-10T10:38:24;17.00;;;6.53;;
78561;SDS011;68963;52.138;5.446;2023-05-10T10:50:18;10.30;;;4.72;;
78561;SDS011;68963;52.138;5.446;2023-05-10T10:52:39;10.63;;;4.97;;
78561;SDS011;68963;52.138;5.446;2023-05-10T10:55:07;12.45;;;5.20;;
78561;SDS011;68963;52.138;5.446;2023-05-10T10:57:49;11.60;;;5.28;;
78561;SDS011;68963;52.138;5.446;2023-05-10T11:05:45;11.15;;;5.00;;
78561;SDS011;68963;52.138;5.446;2023-05-10T11:08:29;10.48;;;4.15;;
78561;SDS011;68963;52.138;5.446;2023-05-10T11:13:27;9.73;;;4.38;;
78561;SDS011;68963;52.138;5.446;2023-05-10T11:21:23;10.77;;;4.70;;
78561;SDS011;68963;52.138;5.446;2023-05-10T11:23:51;9.95;;;4.63;;
78561;SDS011;68963;52.138;5.446;2023-05-10T11:26:24;9.45;;;4.90;;
78561;SDS011;68963;52.138;5.446;2023-05-10T11:28:53;8.30;;;4.07;;
78561;SDS011;68963;52.138;5.446;2023-05-10T11:31:21;11.80;;;4.88;;
78561;SDS011;68963;52.138;5.446;2023-05-10T11:33:52;8.20;;;4.22;;
78561;SDS011;68963;52.138;5.446;2023-05-10T11:36:24;10.00;;;4.55;;
78561;SDS011;68963;52.138;5.446;2023-05-10T11:38:53;11.02;;;4.70;;
78561;SDS011;68963;52.138;5.446;2023-05-10T11:41:21;10.80;;;4.70;;
78561;SDS011;68963;52.138;5.446;2023-05-10T11:43:50;9.07;;;4.45;;
78561;SDS011;68963;52.138;5.446;2023-05-10T11:46:19;10.70;;;4.68;;
78561;SDS011;68963;52.138;5.446;2023-05-10T11:48:51;11.20;;;4.75;;
78561;SDS011;68963;52.138;5.446;2023-05-10T11:51:21;11.02;;;5.47;;
78561;SDS011;68963;52.138;5.446;2023-05-10T11:53:49;10.27;;;4.32;;
78561;SDS011;68963;52.138;5.446;2023-05-10T11:56:17;8.93;;;4.00;;
78561;SDS011;68963;52.138;5.446;2023-05-10T11:58:44;8.65;;;4.20;;
78561;SDS011;68963;52.138;5.446;2023-05-10T12:01:11;9.15;;;3.83;;
78561;SDS011;68963;52.138;5.446;2023-05-10T12:03:38;8.65;;;4.00;;
78561;SDS011;68963;52.138;5.446;2023-05-10T12:06:07;7.25;;;3.42;;
78561;SDS011;68963;52.138;5.446;2023-05-10T12:08:34;9.25;;;3.80;;
78561;SDS011;68963;52.138;5.446;2023-05-10T12:11:08;9.75;;;3.80;;
78561;SDS011;68963;52.138;5.446;2023-05-10T12:13:40;6.53;;;3.10;;
78561;SDS011;68963;52.138;5.446;2023-05-10T12:16:16;6.72;;;3.40;;
78561;SDS011;68963;52.138;5.446;2023-05-10T12:18:44;6.90;;;3.22;;
78561;SDS011;68963;52.138;5.446;2023-05-10T12:21:11;7.68;;;3.10;;
78561;SDS011;68963;52.138;5.446;2023-05-10T12:23:39;7.53;;;2.90;;
78561;SDS011;68963;52.138;5.446;2023-05-10T12:26:06;6.72;;;2.75;;
78561;SDS011;68963;52.138;5.446;2023-05-10T12:28:35;5.22;;;2.33;;
78561;SDS011;68963;52.138;5.446;2023-05-10T12:31:03;6.35;;;2.78;;
78561;SDS011;68963;52.138;5.446;2023-05-10T12:33:37;5.70;;;2.53;;
78561;SDS011;68963;52.138;5.446;2023-05-10T12:36:05;5.05;;;2.20;;
78561;SDS011;68963;52.138;5.446;2023-05-10T12:38:33;6.10;;;2.83;;
78561;SDS011;68963;52.138;5.446;2023-05-10T12:41:07;6.93;;;2.88;;
78561;SDS011;68963;52.138;5.446;2023-05-10T12:43:35;6.85;;;2.53;;
78561;SDS011;68963;52.138;5.446;2023-05-10T12:48:32;7.63;;;2.75;;
78561;SDS011;68963;52.138;5.446;2023-05-10T12:51:00;6.93;;;2.72;;
78561;SDS011;68963;52.138;5.446;2023-05-10T12:53:28;6.28;;;2.67;;
78561;SDS011;68963;52.138;5.446;2023-05-10T12:55:55;8.13;;;2.83;;
78561;SDS011;68963;52.138;5.446;2023-05-10T12:58:22;5.90;;;2.63;;
78561;SDS011;68963;52.138;5.446;2023-05-10T13:01:00;6.80;;;2.63;;
78561;SDS011;68963;52.138;5.446;2023-05-10T13:03:27;5.70;;;2.50;;
78561;SDS011;68963;52.138;5.446;2023-05-10T13:05:53;5.95;;;2.33;;
78561;SDS011;68963;52.138;5.446;2023-05-10T13:08:20;5.20;;;2.17;;
78561;SDS011;68963;52.138;5.446;2023-05-10T13:10:46;6.70;;;2.30;;
78561;SDS011;68963;52.138;5.446;2023-05-10T13:13:13;5.07;;;2.22;;
78561;SDS011;68963;52.138;5.446;2023-05-10T13:15:40;6.32;;;2.42;;
78561;SDS011;68963;52.138;5.446;2023-05-10T13:18:06;6.93;;;2.50;;
78561;SDS011;68963;52.138;5.446;2023-05-10T13:20:34;4.82;;;2.13;;
78561;SDS011;68963;52.138;5.446;2023-05-10T13:23:00;6.55;;;2.40;;
78561;SDS011;68963;52.138;5.446;2023-05-10T13:27:55;6.88;;;3.42;;
78561;SDS011;68963;52.138;5.446;2023-05-10T13:30:21;8.00;;;4.22;;
78561;SDS011;68963;52.138;5.446;2023-05-10T13:32:49;10.00;;;4.88;;
78561;SDS011;68963;52.138;5.446;2023-05-10T13:35:16;10.95;;;4.80;;
78561;SDS011;68963;52.138;5.446;2023-05-10T13:37:43;9.77;;;4.95;;
78561;SDS011;68963;52.138;5.446;2023-05-10T13:40:09;10.88;;;4.82;;
78561;SDS011;68963;52.138;5.446;2023-05-10T13:42:37;10.23;;;4.60;;
78561;SDS011;68963;52.138;5.446;2023-05-10T13:45:03;11.85;;;4.90;;
78561;SDS011;68963;52.138;5.446;2023-05-10T13:47:31;10.00;;;4.55;;
78561;SDS011;68963;52.138;5.446;2023-05-10T13:49:57;12.05;;;5.10;;
78561;SDS011;68963;52.138;5.446;2023-05-10T13:52:24;12.25;;;4.70;;
78561;SDS011;68963;52.138;5.446;2023-05-10T13:54:52;12.35;;;4.85;;
78561;SDS011;68963;52.138;5.446;2023-05-10T13:57:21;11.18;;;4.85;;
78561;SDS011;68963;52.138;5.446;2023-05-10T13:59:48;12.48;;;4.72;;
78561;SDS011;68963;52.138;5.446;2023-05-10T14:02:15;12.93;;;4.93;;
78561;SDS011;68963;52.138;5.446;2023-05-10T14:04:41;12.50;;;5.25;;
78561;SDS011;68963;52.138;5.446;2023-05-10T14:07:08;11.93;;;5.22;;
78561;SDS011;68963;52.138;5.446;2023-05-10T14:09:34;11.20;;;4.95;;
78561;SDS011;68963;52.138;5.446;2023-05-10T14:12:01;10.32;;;4.57;;
78561;SDS011;68963;52.138;5.446;2023-05-10T14:14:28;10.18;;;4.57;;
78561;SDS011;68963;52.138;5.446;2023-05-10T14:16:55;10.65;;;4.90;;
78561;SDS011;68963;52.138;5.446;2023-05-10T14:19:22;12.88;;;4.95;;
78561;SDS011;68963;52.138;5.446;2023-05-10T14:21:48;10.65;;;4.35;;
78561;SDS011;68963;52.138;5.446;2023-05-10T14:24:15;10.88;;;4.75;;
78561;SDS011;68963;52.138;5.446;2023-05-10T14:26:41;10.25;;;4.47;;
78561;SDS011;68963;52.138;5.446;2023-05-10T14:29:08;11.18;;;4.47;;
78561;SDS011;68963;52.138;5.446;2023-05-10T14:31:37;12.90;;;5.28;;
78561;SDS011;68963;52.138;5.446;2023-05-10T14:34:04;10.82;;;4.60;;
78561;SDS011;68963;52.138;5.446;2023-05-10T14:36:30;13.10;;;4.88;;
78561;SDS011;68963;52.138;5.446;2023-05-10T14:38:57;12.70;;;5.30;;
78561;SDS011;68963;52.138;5.446;2023-05-10T14:41:24;14.75;;;5.57;;
78561;SDS011;68963;52.138;5.446;2023-05-10T14:43:50;11.98;;;5.40;;
78561;SDS011;68963;52.138;5.446;2023-05-10T14:46:17;14.43;;;5.72;;
78561;SDS011;68963;52.138;5.446;2023-05-10T14:48:44;13.30;;;5.70;;
78561;SDS011;68963;52.138;5.446;2023-05-10T14:51:10;12.13;;;5.40;;
78561;SDS011;68963;52.138;5.446;2023-05-10T14:53:37;12.68;;;5.28;;
78561;SDS011;68963;52.138;5.446;2023-05-10T14:56:04;11.93;;;5.07;;
78561;SDS011;68963;52.138;5.446;2023-05-10T14:58:31;13.98;;;5.35;;
78561;SDS011;68963;52.138;5.446;2023-05-10T15:00:59;11.85;;;5.45;;
78561;SDS011;68963;52.138;5.446;2023-05-10T15:03:26;14.10;;;5.90;;
78561;SDS011;68963;52.138;5.446;2023-05-10T15:05:54;12.57;;;5.32;;
78561;SDS011;68963;52.138;5.446;2023-05-10T15:10:50;12.57;;;5.05;;
78561;SDS011;68963;52.138;5.446;2023-05-10T15:13:17;13.73;;;5.45;;
78561;SDS011;68963;52.138;5.446;2023-05-10T15:15:43;13.82;;;5.70;;
78561;SDS011;68963;52.138;5.446;2023-05-10T15:18:10;12.05;;;5.60;;
78561;SDS011;68963;52.138;5.446;2023-05-10T15:20:37;14.93;;;5.75;;
78561;SDS011;68963;52.138;5.446;2023-05-10T15:23:03;13.15;;;6.03;;
78561;SDS011;68963;52.138;5.446;2023-05-10T15:25:30;13.38;;;5.30;;
78561;SDS011;68963;52.138;5.446;2023-05-10T15:27:57;12.93;;;5.50;;
78561;SDS011;68963;52.138;5.446;2023-05-10T15:30:23;15.02;;;6.05;;
78561;SDS011;68963;52.138;5.446;2023-05-10T15:32:50;12.32;;;5.47;;
78561;SDS011;68963;52.138;5.446;2023-05-10T15:35:17;11.93;;;5.88;;